sensor_id;sensor_type;location;lat;lon;timestamp;P1;durP1;ratioP1;P2;durP2;ratioP2
71503;SDS011;59323;50.874;7.028;2023-07-08T00:00:18;14.45;;;4.88;;
71503;SDS011;59323;50.874;7.028;2023-07-08T00:02:44;9.30;;;4.33;;
71503;SDS011;59323;50.874;7.028;2023-07-08T00:05:10;9.95;;;4.32;;
71503;SDS011;59323;50.874;7.028;2023-07-08T00:07:38;10.07;;;5.00;;
71503;SDS011;59323;50.874;7.028;2023-07-08T00:10:14;11.52;;;4.80;;
71503;SDS011;59323;50.874;7.028;2023-07-08T00:12:42;9.50;;;4.47;;
71503;SDS011;59323;50.874;7.028;2023-07-08T00:15:09;9.77;;;4.57;;
71503;SDS011;59323;50.874;7.028;2023-07-08T00:17:35;10.05;;;5.10;;
71503;SDS011;59323;50.874;7.028;2023-07-08T00:20:00;9.97;;;5.13;;
71503;SDS011;59323;50.874;7.028;2023-07-08T00:22:26;10.73;;;4.73;;
71503;SDS011;59323;50.874;7.028;2023-07-08T00:24:51;9.43;;;4.17;;
71503;SDS011;59323;50.874;7.028;2023-07-08T00:27:17;10.23;;;5.03;;
71503;SDS011;59323;50.874;7.028;2023-07-08T00:29:42;12.63;;;5.00;;
71503;SDS011;59323;50.874;7.028;2023-07-08T00:32:12;10.88;;;4.55;;
71503;SDS011;59323;50.874;7.028;2023-07-08T00:34:39;10.23;;;4.88;;
71503;SDS011;59323;50.874;7.028;2023-07-08T00:37:05;11.48;;;5.45;;
71503;SDS011;59323;50.874;7.028;2023-07-08T00:39:31;10.60;;;4.97;;
71503;SDS011;59323;50.874;7.028;2023-07-08T00:41:58;10.73;;;5.20;;
71503;SDS011;59323;50.874;7.028;2023-07-08T00:44:25;8.98;;;4.20;;
71503;SDS011;59323;50.874;7.028;2023-07-08T00:52:26;10.75;;;5.30;;
71503;SDS011;59323;50.874;7.028;2023-07-08T00:54:53;10.70;;;4.77;;
71503;SDS011;59323;50.874;7.028;2023-07-08T00:57:22;9.35;;;4.57;;
71503;SDS011;59323;50.874;7.028;2023-07-08T01:02:54;10.57;;;4.47;;
71503;SDS011;59323;50.874;7.028;2023-07-08T01:05:22;13.40;;;5.53;;
71503;SDS011;59323;50.874;7.028;2023-07-08T01:07:54;10.07;;;4.80;;
71503;SDS011;59323;50.874;7.028;2023-07-08T01:10:27;8.85;;;4.55;;
71503;SDS011;59323;50.874;7.028;2023-07-08T01:12:59;10.88;;;5.35;;
71503;SDS011;59323;50.874;7.028;2023-07-08T01:15:35;9.98;;;4.35;;
71503;SDS011;59323;50.874;7.028;2023-07-08T01:18:04;9.25;;;4.32;;
71503;SDS011;59323;50.874;7.028;2023-07-08T01:20:31;10.90;;;4.50;;
71503;SDS011;59323;50.874;7.028;2023-07-08T01:22:57;10.35;;;4.65;;
71503;SDS011;59323;50.874;7.028;2023-07-08T01:25:22;10.33;;;4.90;;
71503;SDS011;59323;50.874;7.028;2023-07-08T01:27:49;9.55;;;4.57;;
71503;SDS011;59323;50.874;7.028;2023-07-08T01:30:19;9.82;;;4.70;;
71503;SDS011;59323;50.874;7.028;2023-07-08T01:32:49;9.67;;;4.50;;
71503;SDS011;59323;50.874;7.028;2023-07-08T01:35:19;10.45;;;4.57;;
71503;SDS011;59323;50.874;7.028;2023-07-08T01:37:47;9.20;;;4.20;;
71503;SDS011;59323;50.874;7.028;2023-07-08T01:42:44;9.65;;;4.30;;
71503;SDS011;59323;50.874;7.028;2023-07-08T01:45:10;9.85;;;4.70;;
71503;SDS011;59323;50.874;7.028;2023-07-08T01:47:38;10.53;;;4.87;;
71503;SDS011;59323;50.874;7.028;2023-07-08T01:50:06;10.27;;;4.72;;
71503;SDS011;59323;50.874;7.028;2023-07-08T01:52:32;10.10;;;4.40;;
71503;SDS011;59323;50.874;7.028;2023-07-08T01:54:57;10.30;;;4.70;;
71503;SDS011;59323;50.874;7.028;2023-07-08T01:57:23;10.47;;;4.33;;
71503;SDS011;59323;50.874;7.028;2023-07-08T01:59:48;9.23;;;4.40;;
71503;SDS011;59323;50.874;7.028;2023-07-08T02:02:15;9.60;;;4.60;;
71503;SDS011;59323;50.874;7.028;2023-07-08T02:04:40;10.23;;;4.43;;
71503;SDS011;59323;50.874;7.028;2023-07-08T02:07:06;8.67;;;4.00;;
71503;SDS011;59323;50.874;7.028;2023-07-08T02:09:36;10.00;;;4.67;;
71503;SDS011;59323;50.874;7.028;2023-07-08T02:12:01;11.00;;;4.35;;
71503;SDS011;59323;50.874;7.028;2023-07-08T02:14:26;12.07;;;4.30;;
71503;SDS011;59323;50.874;7.028;2023-07-08T02:16:52;10.00;;;4.10;;
71503;SDS011;59323;50.874;7.028;2023-07-08T02:19:17;9.33;;;4.17;;
71503;SDS011;59323;50.874;7.028;2023-07-08T02:21:42;12.00;;;4.93;;
71503;SDS011;59323;50.874;7.028;2023-07-08T02:24:08;9.53;;;4.50;;
71503;SDS011;59323;50.874;7.028;2023-07-08T02:26:33;10.63;;;4.43;;
71503;SDS011;59323;50.874;7.028;2023-07-08T02:29:02;9.60;;;4.23;;
71503;SDS011;59323;50.874;7.028;2023-07-08T02:31:27;8.60;;;4.18;;
71503;SDS011;59323;50.874;7.028;2023-07-08T02:33:53;8.00;;;3.87;;
71503;SDS011;59323;50.874;7.028;2023-07-08T02:36:19;10.88;;;4.40;;
71503;SDS011;59323;50.874;7.028;2023-07-08T02:38:45;10.38;;;4.18;;
71503;SDS011;59323;50.874;7.028;2023-07-08T02:41:10;8.80;;;4.27;;
71503;SDS011;59323;50.874;7.028;2023-07-08T02:43:36;9.68;;;4.70;;
71503;SDS011;59323;50.874;7.028;2023-07-08T02:46:05;12.32;;;5.07;;
71503;SDS011;59323;50.874;7.028;2023-07-08T02:48:30;8.63;;;3.87;;
71503;SDS011;59323;50.874;7.028;2023-07-08T02:50:59;11.73;;;4.27;;
71503;SDS011;59323;50.874;7.028;2023-07-08T02:53:25;9.45;;;4.40;;
71503;SDS011;59323;50.874;7.028;2023-07-08T02:55:51;8.20;;;4.00;;
71503;SDS011;59323;50.874;7.028;2023-07-08T02:58:16;9.33;;;4.57;;
71503;SDS011;59323;50.874;7.028;2023-07-08T03:00:41;8.97;;;4.70;;
71503;SDS011;59323;50.874;7.028;2023-07-08T03:03:06;10.43;;;4.20;;
71503;SDS011;59323;50.874;7.028;2023-07-08T03:05:32;9.07;;;3.88;;
71503;SDS011;59323;50.874;7.028;2023-07-08T03:07:57;10.00;;;5.17;;
71503;SDS011;59323;50.874;7.028;2023-07-08T03:10:23;8.35;;;3.58;;
71503;SDS011;59323;50.874;7.028;2023-07-08T03:12:49;9.60;;;4.20;;
71503;SDS011;59323;50.874;7.028;2023-07-08T03:15:14;9.10;;;3.50;;
71503;SDS011;59323;50.874;7.028;2023-07-08T03:17:39;8.57;;;4.00;;
71503;SDS011;59323;50.874;7.028;2023-07-08T03:20:07;9.02;;;4.20;;
71503;SDS011;59323;50.874;7.028;2023-07-08T03:22:33;8.25;;;3.95;;
71503;SDS011;59323;50.874;7.028;2023-07-08T03:24:58;7.87;;;3.77;;
71503;SDS011;59323;50.874;7.028;2023-07-08T03:27:24;7.97;;;3.80;;
71503;SDS011;59323;50.874;7.028;2023-07-08T03:29:49;7.90;;;3.67;;
71503;SDS011;59323;50.874;7.028;2023-07-08T03:32:14;8.30;;;4.00;;
71503;SDS011;59323;50.874;7.028;2023-07-08T03:34:40;12.70;;;4.37;;
71503;SDS011;59323;50.874;7.028;2023-07-08T03:37:05;7.83;;;3.70;;
71503;SDS011;59323;50.874;7.028;2023-07-08T03:39:31;8.13;;;3.73;;
71503;SDS011;59323;50.874;7.028;2023-07-08T03:41:59;9.52;;;4.30;;
71503;SDS011;59323;50.874;7.028;2023-07-08T03:44:25;8.00;;;3.90;;
71503;SDS011;59323;50.874;7.028;2023-07-08T03:46:50;9.67;;;4.27;;
71503;SDS011;59323;50.874;7.028;2023-07-08T03:49:16;8.60;;;3.50;;
71503;SDS011;59323;50.874;7.028;2023-07-08T03:51:48;10.60;;;4.93;;
71503;SDS011;59323;50.874;7.028;2023-07-08T03:54:15;8.93;;;4.22;;
71503;SDS011;59323;50.874;7.028;2023-07-08T03:56:41;8.30;;;3.83;;
71503;SDS011;59323;50.874;7.028;2023-07-08T03:59:06;9.88;;;4.25;;
71503;SDS011;59323;50.874;7.028;2023-07-08T04:01:32;9.13;;;4.43;;
71503;SDS011;59323;50.874;7.028;2023-07-08T04:03:58;12.80;;;4.33;;
71503;SDS011;59323;50.874;7.028;2023-07-08T04:06:24;8.18;;;3.45;;
71503;SDS011;59323;50.874;7.028;2023-07-08T04:08:50;8.65;;;3.90;;
71503;SDS011;59323;50.874;7.028;2023-07-08T04:11:17;8.35;;;3.85;;
71503;SDS011;59323;50.874;7.028;2023-07-08T04:13:44;8.48;;;3.80;;
71503;SDS011;59323;50.874;7.028;2023-07-08T04:16:14;8.40;;;3.50;;
71503;SDS011;59323;50.874;7.028;2023-07-08T04:18:43;8.32;;;3.72;;
71503;SDS011;59323;50.874;7.028;2023-07-08T04:21:08;10.50;;;4.43;;
71503;SDS011;59323;50.874;7.028;2023-07-08T04:23:33;9.03;;;4.10;;
71503;SDS011;59323;50.874;7.028;2023-07-08T04:25:59;9.97;;;3.47;;
71503;SDS011;59323;50.874;7.028;2023-07-08T04:28:24;9.07;;;3.72;;
71503;SDS011;59323;50.874;7.028;2023-07-08T04:30:50;10.13;;;3.90;;
71503;SDS011;59323;50.874;7.028;2023-07-08T04:33:15;9.97;;;4.20;;
71503;SDS011;59323;50.874;7.028;2023-07-08T04:35:42;7.93;;;3.90;;
71503;SDS011;59323;50.874;7.028;2023-07-08T04:38:19;9.20;;;4.35;;
71503;SDS011;59323;50.874;7.028;2023-07-08T04:40:47;8.35;;;3.72;;
71503;SDS011;59323;50.874;7.028;2023-07-08T04:43:13;8.32;;;3.25;;
71503;SDS011;59323;50.874;7.028;2023-07-08T04:45:39;8.30;;;3.77;;
71503;SDS011;59323;50.874;7.028;2023-07-08T04:48:11;9.13;;;4.15;;
71503;SDS011;59323;50.874;7.028;2023-07-08T04:50:40;8.90;;;4.32;;
71503;SDS011;59323;50.874;7.028;2023-07-08T04:53:09;8.90;;;3.53;;
71503;SDS011;59323;50.874;7.028;2023-07-08T04:55:36;8.27;;;3.83;;
71503;SDS011;59323;50.874;7.028;2023-07-08T04:58:04;9.47;;;3.80;;
71503;SDS011;59323;50.874;7.028;2023-07-08T05:00:29;10.05;;;4.15;;
71503;SDS011;59323;50.874;7.028;2023-07-08T05:02:54;9.00;;;3.77;;
71503;SDS011;59323;50.874;7.028;2023-07-08T05:05:20;10.53;;;4.40;;
71503;SDS011;59323;50.874;7.028;2023-07-08T05:07:45;7.80;;;3.67;;
71503;SDS011;59323;50.874;7.028;2023-07-08T05:10:11;8.75;;;3.38;;
71503;SDS011;59323;50.874;7.028;2023-07-08T05:12:36;7.17;;;3.60;;
71503;SDS011;59323;50.874;7.028;2023-07-08T05:15:02;8.03;;;3.30;;
71503;SDS011;59323;50.874;7.028;2023-07-08T05:17:28;11.20;;;3.55;;
71503;SDS011;59323;50.874;7.028;2023-07-08T05:19:54;7.47;;;4.05;;
71503;SDS011;59323;50.874;7.028;2023-07-08T05:22:22;7.78;;;3.60;;
71503;SDS011;59323;50.874;7.028;2023-07-08T05:24:50;8.90;;;3.75;;
71503;SDS011;59323;50.874;7.028;2023-07-08T05:27:17;8.77;;;3.80;;
71503;SDS011;59323;50.874;7.028;2023-07-08T05:29:45;7.68;;;3.85;;
71503;SDS011;59323;50.874;7.028;2023-07-08T05:32:11;8.05;;;3.97;;
71503;SDS011;59323;50.874;7.028;2023-07-08T05:34:36;7.67;;;3.73;;
71503;SDS011;59323;50.874;7.028;2023-07-08T05:37:01;7.83;;;3.83;;
71503;SDS011;59323;50.874;7.028;2023-07-08T05:39:28;7.75;;;3.75;;
71503;SDS011;59323;50.874;7.028;2023-07-08T05:41:54;7.90;;;3.92;;
71503;SDS011;59323;50.874;7.028;2023-07-08T05:44:20;9.90;;;3.73;;
71503;SDS011;59323;50.874;7.028;2023-07-08T05:46:45;9.47;;;3.90;;
71503;SDS011;59323;50.874;7.028;2023-07-08T05:49:10;9.87;;;3.90;;
71503;SDS011;59323;50.874;7.028;2023-07-08T05:51:36;7.80;;;3.70;;
71503;SDS011;59323;50.874;7.028;2023-07-08T05:54:01;8.43;;;3.50;;
71503;SDS011;59323;50.874;7.028;2023-07-08T05:56:27;7.30;;;3.23;;
71503;SDS011;59323;50.874;7.028;2023-07-08T05:58:52;7.47;;;3.63;;
71503;SDS011;59323;50.874;7.028;2023-07-08T06:01:17;9.03;;;4.23;;
71503;SDS011;59323;50.874;7.028;2023-07-08T06:03:43;9.13;;;4.47;;
71503;SDS011;59323;50.874;7.028;2023-07-08T06:06:08;8.50;;;3.90;;
71503;SDS011;59323;50.874;7.028;2023-07-08T06:08:34;8.03;;;3.30;;
71503;SDS011;59323;50.874;7.028;2023-07-08T06:10:59;8.47;;;3.90;;
71503;SDS011;59323;50.874;7.028;2023-07-08T06:13:24;7.43;;;3.90;;
71503;SDS011;59323;50.874;7.028;2023-07-08T06:15:50;9.27;;;4.20;;
71503;SDS011;59323;50.874;7.028;2023-07-08T06:18:15;7.17;;;3.70;;
71503;SDS011;59323;50.874;7.028;2023-07-08T06:20:41;9.40;;;3.60;;
71503;SDS011;59323;50.874;7.028;2023-07-08T06:23:06;9.00;;;4.18;;
71503;SDS011;59323;50.874;7.028;2023-07-08T06:25:32;11.07;;;3.53;;
71503;SDS011;59323;50.874;7.028;2023-07-08T06:27:57;8.57;;;3.67;;
71503;SDS011;59323;50.874;7.028;2023-07-08T06:30:23;8.07;;;3.65;;
71503;SDS011;59323;50.874;7.028;2023-07-08T06:32:48;8.47;;;3.90;;
71503;SDS011;59323;50.874;7.028;2023-07-08T06:35:14;7.07;;;3.80;;
71503;SDS011;59323;50.874;7.028;2023-07-08T06:37:39;7.72;;;3.55;;
71503;SDS011;59323;50.874;7.028;2023-07-08T06:40:05;8.33;;;3.83;;
71503;SDS011;59323;50.874;7.028;2023-07-08T06:42:31;6.78;;;3.28;;
71503;SDS011;59323;50.874;7.028;2023-07-08T06:44:56;7.50;;;3.80;;
71503;SDS011;59323;50.874;7.028;2023-07-08T06:47:21;7.40;;;3.53;;
71503;SDS011;59323;50.874;7.028;2023-07-08T06:49:47;8.40;;;3.97;;
71503;SDS011;59323;50.874;7.028;2023-07-08T06:52:13;8.27;;;4.13;;
71503;SDS011;59323;50.874;7.028;2023-07-08T06:54:39;7.32;;;3.47;;
71503;SDS011;59323;50.874;7.028;2023-07-08T06:57:04;11.00;;;3.43;;
71503;SDS011;59323;50.874;7.028;2023-07-08T06:59:30;7.88;;;3.65;;
71503;SDS011;59323;50.874;7.028;2023-07-08T07:01:55;8.83;;;4.17;;
71503;SDS011;59323;50.874;7.028;2023-07-08T07:04:21;9.43;;;4.07;;
71503;SDS011;59323;50.874;7.028;2023-07-08T07:06:46;8.97;;;4.90;;
71503;SDS011;59323;50.874;7.028;2023-07-08T07:09:11;8.70;;;3.97;;
71503;SDS011;59323;50.874;7.028;2023-07-08T07:11:37;9.10;;;4.20;;
71503;SDS011;59323;50.874;7.028;2023-07-08T07:14:02;11.93;;;5.07;;
71503;SDS011;59323;50.874;7.028;2023-07-08T07:16:28;9.53;;;3.53;;
71503;SDS011;59323;50.874;7.028;2023-07-08T07:18:54;9.13;;;4.32;;
71503;SDS011;59323;50.874;7.028;2023-07-08T07:21:19;8.17;;;4.10;;
71503;SDS011;59323;50.874;7.028;2023-07-08T07:23:45;10.30;;;4.05;;
71503;SDS011;59323;50.874;7.028;2023-07-08T07:26:10;7.87;;;4.17;;
71503;SDS011;59323;50.874;7.028;2023-07-08T07:28:35;11.07;;;4.47;;
71503;SDS011;59323;50.874;7.028;2023-07-08T07:31:01;10.57;;;4.23;;
71503;SDS011;59323;50.874;7.028;2023-07-08T07:33:26;9.57;;;4.82;;
71503;SDS011;59323;50.874;7.028;2023-07-08T07:35:52;10.47;;;4.70;;
71503;SDS011;59323;50.874;7.028;2023-07-08T07:38:18;12.70;;;4.60;;
71503;SDS011;59323;50.874;7.028;2023-07-08T07:40:44;8.77;;;4.77;;
71503;SDS011;59323;50.874;7.028;2023-07-08T07:43:10;7.88;;;4.32;;
71503;SDS011;59323;50.874;7.028;2023-07-08T07:45:35;10.60;;;4.60;;
71503;SDS011;59323;50.874;7.028;2023-07-08T07:48:01;9.75;;;5.20;;
71503;SDS011;59323;50.874;7.028;2023-07-08T07:50:30;8.50;;;5.15;;
71503;SDS011;59323;50.874;7.028;2023-07-08T07:52:57;8.68;;;4.88;;
71503;SDS011;59323;50.874;7.028;2023-07-08T07:55:24;9.67;;;4.57;;
71503;SDS011;59323;50.874;7.028;2023-07-08T07:57:50;11.52;;;5.40;;
71503;SDS011;59323;50.874;7.028;2023-07-08T08:00:15;12.70;;;4.53;;
71503;SDS011;59323;50.874;7.028;2023-07-08T08:02:41;10.97;;;5.37;;
71503;SDS011;59323;50.874;7.028;2023-07-08T08:05:07;10.82;;;4.85;;
71503;SDS011;59323;50.874;7.028;2023-07-08T08:07:32;9.15;;;4.88;;
71503;SDS011;59323;50.874;7.028;2023-07-08T08:09:58;9.03;;;4.97;;
71503;SDS011;59323;50.874;7.028;2023-07-08T08:12:23;9.53;;;4.80;;
71503;SDS011;59323;50.874;7.028;2023-07-08T08:14:49;9.13;;;4.85;;
71503;SDS011;59323;50.874;7.028;2023-07-08T08:17:15;11.27;;;5.57;;
71503;SDS011;59323;50.874;7.028;2023-07-08T08:19:41;9.23;;;4.70;;
71503;SDS011;59323;50.874;7.028;2023-07-08T08:22:06;9.40;;;5.03;;
71503;SDS011;59323;50.874;7.028;2023-07-08T08:24:32;10.23;;;5.37;;
71503;SDS011;59323;50.874;7.028;2023-07-08T08:26:58;10.07;;;5.28;;
71503;SDS011;59323;50.874;7.028;2023-07-08T08:29:25;9.07;;;5.53;;
71503;SDS011;59323;50.874;7.028;2023-07-08T08:31:50;9.55;;;5.40;;
71503;SDS011;59323;50.874;7.028;2023-07-08T08:34:16;7.83;;;4.70;;
71503;SDS011;59323;50.874;7.028;2023-07-08T08:36:42;9.38;;;5.53;;
71503;SDS011;59323;50.874;7.028;2023-07-08T08:39:07;8.32;;;4.60;;
71503;SDS011;59323;50.874;7.028;2023-07-08T08:41:34;9.67;;;5.10;;
71503;SDS011;59323;50.874;7.028;2023-07-08T08:44:05;10.00;;;5.60;;
71503;SDS011;59323;50.874;7.028;2023-07-08T08:49:21;10.18;;;5.00;;
71503;SDS011;59323;50.874;7.028;2023-07-08T08:51:52;11.00;;;5.00;;
71503;SDS011;59323;50.874;7.028;2023-07-08T08:54:18;10.33;;;4.93;;
71503;SDS011;59323;50.874;7.028;2023-07-08T09:02:41;9.75;;;5.65;;
71503;SDS011;59323;50.874;7.028;2023-07-08T09:05:15;9.10;;;5.00;;
71503;SDS011;59323;50.874;7.028;2023-07-08T09:07:44;9.63;;;5.10;;
71503;SDS011;59323;50.874;7.028;2023-07-08T09:12:54;8.65;;;5.32;;
71503;SDS011;59323;50.874;7.028;2023-07-08T09:15:22;8.43;;;5.50;;
71503;SDS011;59323;50.874;7.028;2023-07-08T09:17:50;10.55;;;5.15;;
71503;SDS011;59323;50.874;7.028;2023-07-08T09:20:22;8.90;;;4.68;;
71503;SDS011;59323;50.874;7.028;2023-07-08T09:22:58;9.23;;;5.13;;
71503;SDS011;59323;50.874;7.028;2023-07-08T09:27:58;10.43;;;4.97;;
71503;SDS011;59323;50.874;7.028;2023-07-08T09:30:24;8.85;;;4.20;;
71503;SDS011;59323;50.874;7.028;2023-07-08T09:32:50;11.70;;;4.70;;
71503;SDS011;59323;50.874;7.028;2023-07-08T09:35:17;9.77;;;5.13;;
71503;SDS011;59323;50.874;7.028;2023-07-08T09:37:47;9.13;;;4.43;;
71503;SDS011;59323;50.874;7.028;2023-07-08T09:42:46;8.57;;;4.00;;
71503;SDS011;59323;50.874;7.028;2023-07-08T09:45:17;9.38;;;4.32;;
71503;SDS011;59323;50.874;7.028;2023-07-08T09:47:45;9.77;;;4.85;;
71503;SDS011;59323;50.874;7.028;2023-07-08T09:50:22;8.70;;;5.20;;
71503;SDS011;59323;50.874;7.028;2023-07-08T09:52:54;10.70;;;4.90;;
71503;SDS011;59323;50.874;7.028;2023-07-08T09:55:29;10.00;;;4.95;;
71503;SDS011;59323;50.874;7.028;2023-07-08T09:57:56;10.53;;;5.13;;
71503;SDS011;59323;50.874;7.028;2023-07-08T10:00:32;14.15;;;5.30;;
71503;SDS011;59323;50.874;7.028;2023-07-08T10:03:04;8.07;;;4.43;;
71503;SDS011;59323;50.874;7.028;2023-07-08T10:05:38;10.27;;;3.70;;
71503;SDS011;59323;50.874;7.028;2023-07-08T10:08:19;8.50;;;4.13;;
71503;SDS011;59323;50.874;7.028;2023-07-08T10:10:58;9.07;;;4.47;;
71503;SDS011;59323;50.874;7.028;2023-07-08T10:13:34;9.07;;;4.78;;
71503;SDS011;59323;50.874;7.028;2023-07-08T10:16:15;9.07;;;5.45;;
71503;SDS011;59323;50.874;7.028;2023-07-08T10:18:40;9.40;;;4.97;;
71503;SDS011;59323;50.874;7.028;2023-07-08T10:35:18;10.00;;;5.10;;
71503;SDS011;59323;50.874;7.028;2023-07-08T10:40:50;8.90;;;4.93;;
71503;SDS011;59323;50.874;7.028;2023-07-08T10:52:24;13.57;;;5.23;;
71503;SDS011;59323;50.874;7.028;2023-07-08T10:57:47;11.50;;;5.40;;
71503;SDS011;59323;50.874;7.028;2023-07-08T11:08:27;9.93;;;4.95;;
71503;SDS011;59323;50.874;7.028;2023-07-08T11:11:01;10.20;;;4.72;;
71503;SDS011;59323;50.874;7.028;2023-07-08T11:13:33;10.45;;;4.85;;
71503;SDS011;59323;50.874;7.028;2023-07-08T11:23:43;9.67;;;5.10;;
71503;SDS011;59323;50.874;7.028;2023-07-08T11:26:16;10.50;;;5.35;;
71503;SDS011;59323;50.874;7.028;2023-07-08T11:28:56;12.85;;;5.30;;
71503;SDS011;59323;50.874;7.028;2023-07-08T11:31:24;9.82;;;5.47;;
71503;SDS011;59323;50.874;7.028;2023-07-08T11:33:53;12.10;;;5.43;;
71503;SDS011;59323;50.874;7.028;2023-07-08T11:36:19;10.37;;;5.27;;
71503;SDS011;59323;50.874;7.028;2023-07-08T11:38:48;10.38;;;5.60;;
71503;SDS011;59323;50.874;7.028;2023-07-08T11:41:15;10.57;;;5.30;;
71503;SDS011;59323;50.874;7.028;2023-07-08T11:46:13;10.07;;;5.30;;
71503;SDS011;59323;50.874;7.028;2023-07-08T11:48:45;10.77;;;5.53;;
71503;SDS011;59323;50.874;7.028;2023-07-08T11:51:27;9.13;;;4.53;;
71503;SDS011;59323;50.874;7.028;2023-07-08T11:53:59;9.35;;;5.60;;
71503;SDS011;59323;50.874;7.028;2023-07-08T11:56:28;11.00;;;5.00;;
71503;SDS011;59323;50.874;7.028;2023-07-08T11:59:15;9.32;;;4.65;;
71503;SDS011;59323;50.874;7.028;2023-07-08T12:07:09;9.00;;;5.22;;
71503;SDS011;59323;50.874;7.028;2023-07-08T12:09:39;11.60;;;6.20;;
71503;SDS011;59323;50.874;7.028;2023-07-08T12:12:34;10.80;;;5.60;;
71503;SDS011;59323;50.874;7.028;2023-07-08T12:17:39;11.68;;;4.75;;
71503;SDS011;59323;50.874;7.028;2023-07-08T12:20:06;8.90;;;4.95;;
71503;SDS011;59323;50.874;7.028;2023-07-08T12:22:42;10.88;;;5.00;;
71503;SDS011;59323;50.874;7.028;2023-07-08T12:25:10;9.80;;;4.53;;
71503;SDS011;59323;50.874;7.028;2023-07-08T12:27:38;9.55;;;5.00;;
71503;SDS011;59323;50.874;7.028;2023-07-08T12:30:03;10.67;;;5.40;;
71503;SDS011;59323;50.874;7.028;2023-07-08T12:32:29;10.50;;;5.20;;
71503;SDS011;59323;50.874;7.028;2023-07-08T12:34:54;12.88;;;4.82;;
71503;SDS011;59323;50.874;7.028;2023-07-08T12:37:20;12.55;;;5.30;;
71503;SDS011;59323;50.874;7.028;2023-07-08T12:39:54;9.83;;;5.90;;
71503;SDS011;59323;50.874;7.028;2023-07-08T12:42:46;9.65;;;5.30;;
71503;SDS011;59323;50.874;7.028;2023-07-08T12:45:19;12.48;;;5.70;;
71503;SDS011;59323;50.874;7.028;2023-07-08T12:47:47;9.73;;;4.88;;
71503;SDS011;59323;50.874;7.028;2023-07-08T12:50:14;8.75;;;4.85;;
71503;SDS011;59323;50.874;7.028;2023-07-08T12:52:42;10.03;;;4.87;;
71503;SDS011;59323;50.874;7.028;2023-07-08T12:55:10;9.88;;;4.95;;
71503;SDS011;59323;50.874;7.028;2023-07-08T12:57:36;10.95;;;5.15;;
71503;SDS011;59323;50.874;7.028;2023-07-08T13:00:05;9.93;;;4.88;;
71503;SDS011;59323;50.874;7.028;2023-07-08T13:02:38;8.98;;;5.05;;
71503;SDS011;59323;50.874;7.028;2023-07-08T13:05:04;9.07;;;4.80;;
71503;SDS011;59323;50.874;7.028;2023-07-08T13:09:55;8.67;;;4.40;;
71503;SDS011;59323;50.874;7.028;2023-07-08T13:12:21;9.77;;;5.37;;
71503;SDS011;59323;50.874;7.028;2023-07-08T13:14:49;12.02;;;5.63;;
71503;SDS011;59323;50.874;7.028;2023-07-08T13:17:17;9.77;;;5.43;;
71503;SDS011;59323;50.874;7.028;2023-07-08T13:19:42;9.87;;;5.60;;
71503;SDS011;59323;50.874;7.028;2023-07-08T13:22:14;10.32;;;5.03;;
71503;SDS011;59323;50.874;7.028;2023-07-08T13:24:44;11.02;;;4.88;;
71503;SDS011;59323;50.874;7.028;2023-07-08T13:27:28;8.25;;;4.80;;
71503;SDS011;59323;50.874;7.028;2023-07-08T13:29:55;9.10;;;5.30;;
71503;SDS011;59323;50.874;7.028;2023-07-08T13:32:30;9.65;;;5.47;;
71503;SDS011;59323;50.874;7.028;2023-07-08T13:34:56;9.55;;;5.03;;
71503;SDS011;59323;50.874;7.028;2023-07-08T13:37:21;11.63;;;4.83;;
71503;SDS011;59323;50.874;7.028;2023-07-08T13:39:51;10.18;;;5.55;;
71503;SDS011;59323;50.874;7.028;2023-07-08T13:42:18;10.10;;;4.93;;
71503;SDS011;59323;50.874;7.028;2023-07-08T13:44:44;11.13;;;5.47;;
71503;SDS011;59323;50.874;7.028;2023-07-08T13:47:45;9.38;;;5.22;;
71503;SDS011;59323;50.874;7.028;2023-07-08T13:50:08;9.68;;;5.32;;
71503;SDS011;59323;50.874;7.028;2023-07-08T13:52:44;9.68;;;5.45;;
71503;SDS011;59323;50.874;7.028;2023-07-08T13:55:15;11.17;;;5.30;;
71503;SDS011;59323;50.874;7.028;2023-07-08T13:57:43;11.10;;;5.97;;
71503;SDS011;59323;50.874;7.028;2023-07-08T14:00:09;8.30;;;4.83;;
71503;SDS011;59323;50.874;7.028;2023-07-08T14:02:35;10.05;;;5.43;;
71503;SDS011;59323;50.874;7.028;2023-07-08T14:05:04;10.40;;;5.38;;
71503;SDS011;59323;50.874;7.028;2023-07-08T14:07:35;9.82;;;5.10;;
71503;SDS011;59323;50.874;7.028;2023-07-08T14:10:00;11.53;;;5.47;;
71503;SDS011;59323;50.874;7.028;2023-07-08T14:12:26;9.20;;;5.10;;
71503;SDS011;59323;50.874;7.028;2023-07-08T14:14:51;9.73;;;5.83;;
71503;SDS011;59323;50.874;7.028;2023-07-08T14:17:26;12.10;;;6.13;;
71503;SDS011;59323;50.874;7.028;2023-07-08T14:19:52;12.07;;;5.07;;
71503;SDS011;59323;50.874;7.028;2023-07-08T14:24:51;9.10;;;6.07;;
71503;SDS011;59323;50.874;7.028;2023-07-08T14:27:17;10.27;;;6.38;;
71503;SDS011;59323;50.874;7.028;2023-07-08T14:29:45;12.97;;;6.33;;
71503;SDS011;59323;50.874;7.028;2023-07-08T14:32:12;11.80;;;6.43;;
71503;SDS011;59323;50.874;7.028;2023-07-08T14:34:40;9.95;;;6.18;;
71503;SDS011;59323;50.874;7.028;2023-07-08T14:37:13;9.77;;;6.03;;
71503;SDS011;59323;50.874;7.028;2023-07-08T14:39:40;9.37;;;5.07;;
71503;SDS011;59323;50.874;7.028;2023-07-08T14:42:07;13.75;;;6.28;;
71503;SDS011;59323;50.874;7.028;2023-07-08T14:44:37;10.33;;;5.20;;
71503;SDS011;59323;50.874;7.028;2023-07-08T14:47:04;10.00;;;5.28;;
71503;SDS011;59323;50.874;7.028;2023-07-08T14:49:33;10.13;;;4.85;;
71503;SDS011;59323;50.874;7.028;2023-07-08T14:51:59;13.10;;;6.63;;
71503;SDS011;59323;50.874;7.028;2023-07-08T14:54:24;12.43;;;6.03;;
71503;SDS011;59323;50.874;7.028;2023-07-08T14:56:49;10.88;;;5.93;;
71503;SDS011;59323;50.874;7.028;2023-07-08T14:59:16;10.20;;;6.00;;
71503;SDS011;59323;50.874;7.028;2023-07-08T15:01:44;11.00;;;5.82;;
71503;SDS011;59323;50.874;7.028;2023-07-08T15:04:14;10.50;;;5.65;;
71503;SDS011;59323;50.874;7.028;2023-07-08T15:06:41;11.10;;;6.90;;
71503;SDS011;59323;50.874;7.028;2023-07-08T15:09:07;14.38;;;6.22;;
71503;SDS011;59323;50.874;7.028;2023-07-08T15:11:33;9.35;;;6.15;;
71503;SDS011;59323;50.874;7.028;2023-07-08T15:14:00;11.90;;;5.70;;
71503;SDS011;59323;50.874;7.028;2023-07-08T15:16:27;11.10;;;6.25;;
71503;SDS011;59323;50.874;7.028;2023-07-08T15:18:52;12.00;;;5.90;;
71503;SDS011;59323;50.874;7.028;2023-07-08T15:21:18;13.10;;;6.23;;
71503;SDS011;59323;50.874;7.028;2023-07-08T15:23:43;10.13;;;6.23;;
71503;SDS011;59323;50.874;7.028;2023-07-08T15:26:11;12.57;;;5.37;;
71503;SDS011;59323;50.874;7.028;2023-07-08T15:28:39;10.20;;;5.60;;
71503;SDS011;59323;50.874;7.028;2023-07-08T15:31:08;9.68;;;5.18;;
71503;SDS011;59323;50.874;7.028;2023-07-08T15:33:35;11.80;;;5.25;;
71503;SDS011;59323;50.874;7.028;2023-07-08T15:36:01;11.50;;;5.70;;
71503;SDS011;59323;50.874;7.028;2023-07-08T15:38:26;13.43;;;6.20;;
71503;SDS011;59323;50.874;7.028;2023-07-08T15:40:51;13.27;;;5.53;;
71503;SDS011;59323;50.874;7.028;2023-07-08T15:43:17;10.77;;;6.10;;
71503;SDS011;59323;50.874;7.028;2023-07-08T15:45:42;9.87;;;5.47;;
71503;SDS011;59323;50.874;7.028;2023-07-08T15:48:15;10.85;;;5.30;;
71503;SDS011;59323;50.874;7.028;2023-07-08T15:50:42;12.38;;;5.82;;
71503;SDS011;59323;50.874;7.028;2023-07-08T15:53:08;11.93;;;5.10;;
71503;SDS011;59323;50.874;7.028;2023-07-08T15:55:40;11.23;;;5.90;;
71503;SDS011;59323;50.874;7.028;2023-07-08T16:00:53;9.82;;;5.40;;
71503;SDS011;59323;50.874;7.028;2023-07-08T16:03:23;13.13;;;6.32;;
71503;SDS011;59323;50.874;7.028;2023-07-08T16:05:54;10.98;;;6.03;;
71503;SDS011;59323;50.874;7.028;2023-07-08T16:08:20;13.50;;;7.00;;
71503;SDS011;59323;50.874;7.028;2023-07-08T16:10:49;13.73;;;5.87;;
71503;SDS011;59323;50.874;7.028;2023-07-08T16:13:27;9.13;;;5.50;;
71503;SDS011;59323;50.874;7.028;2023-07-08T16:15:55;11.82;;;5.30;;